createdAt,value
2019-04-03T00:03:07.262Z,75.97
2019-04-03T00:07:11.045Z,77.92
2019-04-03T00:11:14.822Z,85.15
2019-04-03T00:15:18.430Z,75.15
2019-04-03T00:19:21.960Z,70.15
2019-04-03T00:23:25.495Z,65.42
2019-04-03T00:27:29.180Z,74.82
2019-04-03T00:31:32.902Z,73.97
2019-04-03T00:35:36.617Z,74.80
2019-04-03T00:39:40.230Z,67.62
2019-04-03T00:43:44.048Z,74.03
2019-04-03T00:47:47.740Z,75.35
2019-04-03T00:51:51.528Z,72.40
2019-04-03T00:55:56.411Z,63.73
2019-04-03T01:00:00.665Z,64.72
2019-04-03T01:04:04.497Z,55.60
2019-04-03T01:08:08.464Z,51.15
2019-04-03T01:12:12.109Z,51.65
2019-04-03T01:16:15.712Z,58.10
2019-04-03T01:20:19.335Z,51.35
2019-04-03T01:24:22.951Z,51.70
2019-04-03T01:28:26.668Z,50.58
2019-04-03T01:32:30.286Z,46.65
2019-04-03T01:36:33.894Z,39.70
2019-04-03T01:40:37.507Z,38.08
2019-04-03T01:44:44.295Z,36.85
2019-04-03T01:48:48.044Z,37.53
2019-04-03T01:52:51.737Z,33.53
2019-04-03T01:56:55.353Z,41.98
2019-04-03T02:00:58.998Z,47.23
2019-04-03T02:05:02.623Z,47.70
2019-04-03T02:09:09.266Z,44.45
2019-04-03T02:13:12.794Z,41.88
2019-04-03T02:17:16.392Z,41.33
2019-04-03T02:21:20.003Z,42.95
2019-04-03T02:25:24.745Z,46.60
2019-04-03T02:29:28.457Z,39.40
2019-04-03T02:33:32.175Z,36.88
2019-04-03T02:37:36.129Z,43.60
2019-04-03T02:41:39.822Z,43.78
2019-04-03T02:45:43.904Z,39.73
2019-04-03T02:49:47.866Z,41.33
2019-04-03T02:53:51.679Z,47.62
2019-04-03T02:57:55.326Z,44.33
2019-04-03T03:01:58.913Z,46.90
2019-04-03T03:06:02.881Z,43.87
2019-04-03T03:10:08.314Z,41.33
2019-04-03T03:14:13.126Z,40.20
2019-04-03T03:18:17.049Z,39.67
2019-04-03T03:22:21.286Z,40.67
2019-04-03T03:26:25.501Z,41.70
2019-04-03T03:30:42.129Z,39.05
2019-04-03T03:34:55.056Z,34.00
2019-04-03T03:38:45.319Z,42.00
2019-04-03T03:42:50.611Z,40.90
2019-04-03T03:46:59.343Z,37.03
2019-04-03T03:51:03.576Z,38.30
2019-04-03T03:55:09.243Z,42.13
2019-04-03T03:59:16.376Z,39.00
2019-04-03T04:03:18.612Z,34.95
2019-04-03T04:07:22.604Z,45.78
2019-04-03T04:11:30.834Z,31.35
2019-04-03T04:15:36.597Z,38.08
2019-04-03T04:19:40.549Z,36.15
2019-04-03T04:23:44.673Z,39.75
2019-04-03T04:27:48.881Z,35.98
2019-04-03T04:31:52.534Z,36.17
2019-04-03T04:35:56.129Z,36.03
2019-04-03T04:40:00.263Z,37.10
2019-04-03T04:44:04.276Z,35.15
2019-04-03T04:48:07.906Z,34.83
2019-04-03T04:52:11.502Z,39.60
2019-04-03T04:56:15.245Z,37.60
2019-04-03T05:00:19.083Z,27.93
2019-04-03T05:04:23.292Z,34.27
2019-04-03T05:08:28.072Z,37.58
2019-04-03T05:12:31.882Z,34.15
2019-04-03T05:16:35.655Z,37.98
2019-04-03T05:20:39.632Z,36.03
2019-04-03T05:24:43.292Z,34.88
2019-04-03T05:28:55.751Z,41.20
2019-04-03T05:32:52.201Z,35.43
2019-04-03T05:36:56.012Z,34.83
2019-04-03T05:40:59.692Z,38.78
2019-04-03T05:45:04.551Z,34.43
2019-04-03T05:49:10.811Z,37.48
2019-04-03T05:53:13.911Z,31.02
2019-04-03T05:57:17.731Z,34.65
2019-04-03T06:01:21.393Z,34.43
2019-04-03T06:05:24.962Z,31.15
2019-04-03T06:09:28.830Z,34.95
2019-04-03T06:13:32.491Z,32.95
2019-04-03T06:17:36.863Z,37.60
2019-04-03T06:21:45.653Z,44.98
2019-04-03T06:25:49.134Z,45.70
2019-04-03T06:29:55.029Z,42.27
2019-04-03T06:33:59.372Z,46.23
2019-04-03T06:38:03.082Z,43.35
2019-04-03T06:42:06.801Z,46.15
2019-04-03T06:46:10.457Z,44.65
2019-04-03T06:50:16.901Z,43.52
2019-04-03T06:54:19.823Z,45.48
2019-04-03T06:58:26.512Z,49.75
2019-04-03T07:02:31.393Z,48.95
2019-04-03T07:06:34.354Z,51.77
2019-04-03T07:10:40.274Z,43.58
2019-04-03T07:14:43.420Z,47.88
2019-04-03T07:18:47.013Z,48.38
2019-04-03T07:22:50.825Z,46.00
2019-04-03T07:26:54.575Z,48.35
2019-04-03T07:30:58.446Z,47.75
2019-04-03T07:35:05.196Z,52.50
2019-04-03T07:39:10.613Z,46.48
2019-04-03T07:43:15.041Z,49.55
2019-04-03T07:47:18.652Z,50.98
2019-04-03T07:51:22.268Z,46.90
2019-04-03T07:55:27.999Z,47.78
2019-04-03T07:59:33.415Z,49.80
2019-04-03T08:03:36.485Z,50.45
2019-04-03T08:07:40.464Z,44.75
2019-04-03T08:11:43.993Z,52.78
2019-04-03T08:15:47.745Z,50.80
2019-04-03T08:19:53.593Z,52.95
2019-04-03T08:23:57.085Z,56.25
2019-04-03T08:28:00.730Z,54.20
2019-04-03T08:32:04.855Z,51.33
2019-04-03T08:36:08.994Z,58.70
2019-04-03T08:40:15.564Z,55.00
2019-04-03T08:44:19.175Z,37.75
2019-04-03T08:48:22.790Z,42.40
2019-04-03T08:52:26.513Z,35.98
2019-04-03T08:56:30.224Z,32.35
2019-04-03T09:00:33.912Z,30.68
2019-04-03T09:04:37.767Z,35.78
2019-04-03T09:08:41.373Z,36.03
2019-04-03T09:12:44.915Z,35.60
2019-04-03T09:16:48.500Z,41.15
2019-04-03T09:20:52.369Z,35.13
2019-04-03T09:24:56.034Z,32.78
2019-04-03T09:28:59.749Z,34.15
2019-04-03T09:33:03.362Z,29.25
2019-04-03T09:37:09.841Z,29.82
2019-04-03T09:41:13.557Z,35.80
2019-04-03T09:45:18.747Z,35.00
2019-04-03T09:49:22.432Z,36.50
2019-04-03T09:53:26.738Z,34.05
2019-04-03T09:57:31.328Z,32.38
2019-04-03T10:01:35.417Z,30.70
2019-04-03T10:05:39.033Z,33.85
2019-04-03T10:09:45.021Z,32.17
2019-04-03T10:13:48.868Z,32.48
2019-04-03T10:17:52.550Z,26.53
2019-04-03T10:21:56.166Z,30.73
2019-04-03T10:26:00.064Z,31.97
2019-04-03T10:30:08.614Z,29.72
2019-04-03T10:34:13.728Z,33.33
2019-04-03T10:38:18.312Z,29.72
2019-04-03T10:42:22.735Z,27.52
2019-04-03T10:46:26.757Z,24.25
2019-04-03T10:50:30.472Z,33.83
2019-04-03T10:54:34.095Z,30.92
2019-04-03T10:58:38.425Z,25.82
2019-04-03T11:02:43.200Z,30.68
2019-04-03T11:06:47.279Z,37.15
2019-04-03T11:10:50.999Z,27.27
2019-04-03T11:14:54.764Z,35.73
2019-04-03T11:19:02.721Z,33.75
2019-04-03T11:23:06.296Z,31.87
2019-04-03T11:27:09.141Z,37.67
2019-04-03T11:31:24.965Z,40.60
2019-04-03T11:35:20.574Z,41.40
2019-04-03T11:39:23.573Z,38.63
2019-04-03T11:43:27.818Z,41.58
2019-04-03T11:47:32.579Z,38.95
2019-04-03T11:51:36.243Z,40.05
2019-04-03T11:55:41.815Z,40.55
2019-04-03T11:59:47.005Z,31.17
2019-04-03T12:03:51.612Z,30.00
2019-04-03T12:07:56.557Z,35.83
2019-04-03T12:12:01.291Z,35.20
2019-04-03T12:16:06.143Z,31.75
2019-04-03T12:20:10.911Z,27.60
2019-04-03T12:24:15.028Z,32.00
2019-04-03T12:28:19.026Z,24.15
2019-04-03T12:32:23.022Z,24.35
2019-04-03T12:36:28.262Z,23.60
2019-04-03T12:40:32.844Z,24.63
2019-04-03T12:44:36.642Z,19.77
2019-04-03T12:48:40.386Z,21.45
2019-04-03T12:52:45.033Z,19.67
2019-04-03T12:56:49.343Z,21.55
2019-04-03T13:00:53.410Z,19.37
2019-04-03T13:04:57.075Z,12.85
2019-04-03T13:09:00.691Z,14.23
2019-04-03T13:13:04.735Z,18.95
2019-04-03T13:17:08.489Z,14.20
2019-04-03T13:21:12.353Z,20.05
2019-04-03T13:25:20.351Z,15.43
2019-04-03T13:29:22.955Z,16.60
2019-04-03T13:33:26.686Z,16.97
2019-04-03T13:37:30.285Z,17.75
2019-04-03T13:41:34.858Z,17.73
2019-04-03T13:45:39.021Z,16.25
2019-04-03T13:49:43.331Z,15.98
2019-04-03T13:53:46.893Z,18.35
2019-04-03T13:57:51.393Z,16.95
2019-04-03T14:01:55.324Z,17.60
2019-04-03T14:05:59.070Z,21.93
2019-04-03T14:10:03.265Z,18.50
2019-04-03T14:14:07.014Z,20.57
2019-04-03T14:18:10.877Z,19.15
2019-04-03T14:22:14.689Z,17.85
2019-04-03T14:26:18.486Z,17.52
2019-04-03T14:30:22.085Z,15.13
2019-04-03T14:34:29.262Z,15.38
2019-04-03T14:38:33.068Z,15.55
2019-04-03T14:42:38.461Z,17.55
2019-04-03T14:46:43.506Z,18.62
2019-04-03T14:50:47.806Z,18.73
2019-04-03T14:54:52.003Z,21.35
2019-04-03T14:58:58.929Z,13.68
2019-04-03T15:03:04.752Z,14.10
2019-04-03T15:07:09.926Z,12.88
2019-04-03T15:11:13.896Z,14.30
2019-04-03T15:15:20.365Z,13.68
2019-04-03T15:19:23.998Z,12.28
2019-04-03T15:23:28.877Z,13.18
2019-04-03T15:27:32.576Z,13.50
2019-04-03T15:31:36.900Z,12.37
2019-04-03T15:35:41.381Z,12.47
2019-04-03T15:39:47.803Z,12.60
2019-04-03T15:43:52.027Z,13.90
2019-04-03T15:47:57.669Z,11.15
2019-04-03T15:52:01.597Z,10.93
2019-04-03T15:56:05.901Z,12.70
2019-04-03T16:00:13.153Z,15.40
2019-04-03T16:04:18.306Z,13.88
2019-04-03T16:08:22.199Z,14.63
2019-04-03T16:12:26.039Z,14.33
2019-04-03T16:16:29.882Z,14.28
2019-04-03T16:20:36.591Z,15.48
2019-04-03T16:24:41.680Z,15.00
2019-04-03T16:28:45.715Z,19.92
2019-04-03T16:32:49.660Z,15.77
2019-04-03T16:36:53.353Z,17.60
2019-04-03T16:40:57.615Z,17.13
2019-04-03T16:45:04.485Z,18.75
2019-04-03T16:49:08.920Z,19.50
2019-04-03T16:53:12.858Z,17.60
2019-04-03T16:57:16.550Z,18.25
2019-04-03T17:01:21.030Z,17.10
2019-04-03T17:05:25.567Z,20.43
2019-04-03T17:09:31.755Z,20.05
2019-04-03T17:13:34.988Z,19.37
2019-04-03T17:17:39.155Z,15.95
2019-04-03T17:21:43.786Z,19.07
2019-04-03T17:25:50.590Z,16.52
2019-04-03T17:29:53.671Z,26.50
2019-04-03T17:33:57.779Z,23.77
2019-04-03T17:38:01.723Z,19.45
2019-04-03T17:42:06.784Z,22.75
2019-04-03T17:46:11.477Z,22.98
2019-04-03T17:50:15.544Z,18.73
2019-04-03T17:54:19.323Z,19.87
2019-04-03T17:58:24.063Z,19.05
2019-04-03T18:02:29.608Z,17.10
2019-04-03T18:06:33.773Z,18.32
2019-04-03T18:10:37.770Z,16.05
2019-04-03T18:14:41.911Z,16.02
2019-04-03T18:18:45.818Z,20.40
2019-04-03T18:22:51.004Z,22.90
2019-04-03T18:26:55.414Z,21.62
2019-04-03T18:30:59.317Z,22.30
2019-04-03T18:35:03.241Z,23.35
2019-04-03T18:39:09.721Z,22.25
2019-04-03T18:43:14.050Z,23.15
2019-04-03T18:47:19.101Z,25.50
2019-04-03T18:51:22.939Z,23.77
2019-04-03T18:55:27.790Z,31.27
2019-04-03T18:59:31.580Z,25.95
2019-04-03T19:03:36.391Z,27.87
2019-04-03T19:07:40.752Z,29.02
2019-04-03T19:11:44.336Z,29.00
2019-04-03T19:15:48.298Z,27.75
2019-04-03T19:20:09.448Z,22.27
2019-04-03T19:24:01.059Z,25.12
2019-04-03T19:28:04.927Z,16.65
2019-04-03T19:32:11.832Z,22.32
2019-04-03T19:36:14.036Z,22.77
2019-04-03T19:40:17.653Z,23.80
2019-04-03T19:44:21.701Z,34.50
2019-04-03T19:48:25.647Z,43.50
2019-04-03T19:52:30.379Z,39.05
2019-04-03T19:56:34.706Z,48.85
2019-04-03T20:00:38.857Z,44.40
2019-04-03T20:04:42.818Z,42.60
2019-04-03T20:08:47.401Z,43.02
2019-04-03T20:12:52.649Z,46.37
2019-04-03T20:17:02.805Z,54.00
2019-04-03T20:21:06.817Z,48.40
2019-04-03T20:25:14.485Z,45.60
2019-04-03T20:29:16.408Z,46.53
2019-04-03T20:33:20.001Z,44.18
2019-04-03T20:37:26.015Z,44.45
2019-04-03T20:41:29.069Z,44.58
2019-04-03T20:45:33.716Z,45.43
2019-04-03T20:49:37.444Z,56.83
2019-04-03T20:53:41.047Z,54.95
2019-04-03T20:57:54.910Z,56.77
2019-04-03T21:01:50.106Z,61.92
2019-04-03T21:05:53.743Z,66.67
2019-04-03T21:10:00.625Z,68.55
2019-04-03T21:14:05.450Z,76.22
2019-04-03T21:18:08.148Z,65.72
2019-04-03T21:22:11.706Z,70.12
2019-04-03T21:26:15.373Z,67.42
2019-04-03T21:30:19.090Z,65.87
2019-04-03T21:34:23.644Z,62.83
2019-04-03T21:38:27.243Z,68.22
2019-04-03T21:42:30.805Z,68.05
2019-04-03T21:46:34.572Z,65.55
2019-04-03T21:50:38.288Z,71.00
2019-04-03T21:54:41.910Z,70.65
2019-04-03T21:58:45.515Z,80.03
2019-04-03T22:02:52.517Z,77.78
2019-04-03T22:06:57.876Z,78.87
2019-04-03T22:11:04.616Z,74.85
2019-04-03T22:15:09.129Z,77.97
2019-04-03T22:19:13.122Z,77.15
2019-04-03T22:23:16.926Z,70.75
2019-04-03T22:27:20.536Z,74.80
2019-04-03T22:31:30.396Z,68.35
2019-04-03T22:35:34.113Z,79.05
2019-04-03T22:39:39.040Z,69.25
2019-04-03T22:43:44.162Z,75.57
2019-04-03T22:47:48.638Z,72.00
2019-04-03T22:51:52.356Z,72.03
2019-04-03T22:55:55.970Z,67.17
2019-04-03T22:59:59.835Z,77.82
2019-04-03T23:04:05.325Z,80.20
2019-04-03T23:08:09.171Z,73.80
2019-04-03T23:12:12.783Z,69.45
2019-04-03T23:16:16.498Z,71.50
2019-04-03T23:20:22.178Z,69.12
2019-04-03T23:24:28.545Z,55.60
2019-04-03T23:28:33.728Z,45.45
2019-04-03T23:32:36.588Z,46.37
2019-04-03T23:36:40.204Z,45.58
2019-04-03T23:40:43.832Z,42.17
2019-04-03T23:44:47.530Z,38.05
2019-04-03T23:48:51.975Z,37.25
2019-04-03T23:52:55.782Z,36.75
2019-04-03T23:56:59.561Z,39.42
